sensor_id;sensor_type;location;lat;lon;timestamp;noise_LAeq;noise_LA_min;noise_LA_max;noise_LA01;noise_LA95
79200;Laerm;68628;48.714;9.472;2023-03-23T00:02:14;39.66;34.86;48.75;;
79200;Laerm;68628;48.714;9.472;2023-03-23T00:04:40;37.15;32.45;51.60;;
79200;Laerm;68628;48.714;9.472;2023-03-23T00:07:08;38.55;32.86;51.28;;
79200;Laerm;68628;48.714;9.472;2023-03-23T00:09:33;38.41;34.17;49.56;;
79200;Laerm;68628;48.714;9.472;2023-03-23T00:12:00;40.82;34.87;49.02;;
79200;Laerm;68628;48.714;9.472;2023-03-23T00:14:32;37.27;32.82;44.13;;
79200;Laerm;68628;48.714;9.472;2023-03-23T00:17:10;37.39;34.09;45.14;;
79200;Laerm;68628;48.714;9.472;2023-03-23T00:19:39;45.08;36.26;58.88;;
79200;Laerm;68628;48.714;9.472;2023-03-23T00:22:15;49.43;40.70;57.22;;
79200;Laerm;68628;48.714;9.472;2023-03-23T00:24:43;45.86;38.23;54.92;;
79200;Laerm;68628;48.714;9.472;2023-03-23T00:27:10;40.15;36.08;48.50;;
79200;Laerm;68628;48.714;9.472;2023-03-23T00:29:39;41.31;36.52;47.80;;
79200;Laerm;68628;48.714;9.472;2023-03-23T00:32:06;39.17;34.95;45.27;;
79200;Laerm;68628;48.714;9.472;2023-03-23T00:34:32;43.96;38.29;49.74;;
79200;Laerm;68628;48.714;9.472;2023-03-23T00:37:00;39.61;35.19;46.01;;
79200;Laerm;68628;48.714;9.472;2023-03-23T00:39:27;36.37;33.27;42.28;;
79200;Laerm;68628;48.714;9.472;2023-03-23T00:41:55;38.29;34.62;44.10;;
79200;Laerm;68628;48.714;9.472;2023-03-23T00:44:27;41.57;34.43;49.30;;
79200;Laerm;68628;48.714;9.472;2023-03-23T00:46:54;37.78;31.38;52.30;;
79200;Laerm;68628;48.714;9.472;2023-03-23T00:49:24;39.41;32.60;47.11;;
79200;Laerm;68628;48.714;9.472;2023-03-23T00:51:56;39.14;34.92;46.99;;
79200;Laerm;68628;48.714;9.472;2023-03-23T00:54:26;44.07;35.57;54.66;;
79200;Laerm;68628;48.714;9.472;2023-03-23T00:56:53;36.53;32.56;42.29;;
79200;Laerm;68628;48.714;9.472;2023-03-23T00:59:20;35.89;32.96;40.08;;
79200;Laerm;68628;48.714;9.472;2023-03-23T01:01:48;42.85;31.17;57.14;;
79200;Laerm;68628;48.714;9.472;2023-03-23T01:04:15;34.29;32.08;39.22;;
79200;Laerm;68628;48.714;9.472;2023-03-23T01:06:44;36.22;33.17;46.26;;
79200;Laerm;68628;48.714;9.472;2023-03-23T01:09:15;39.39;34.63;44.57;;
79200;Laerm;68628;48.714;9.472;2023-03-23T01:11:45;37.15;34.00;41.30;;
79200;Laerm;68628;48.714;9.472;2023-03-23T01:14:15;36.24;32.86;45.70;;
79200;Laerm;68628;48.714;9.472;2023-03-23T01:16:41;38.80;35.09;51.33;;
79200;Laerm;68628;48.714;9.472;2023-03-23T01:19:07;39.19;35.49;46.55;;
79200;Laerm;68628;48.714;9.472;2023-03-23T01:21:32;38.20;33.27;43.97;;
79200;Laerm;68628;48.714;9.472;2023-03-23T01:23:58;42.97;32.73;54.35;;
79200;Laerm;68628;48.714;9.472;2023-03-23T01:26:27;40.56;36.35;48.12;;
79200;Laerm;68628;48.714;9.472;2023-03-23T01:28:53;42.47;32.34;51.24;;
79200;Laerm;68628;48.714;9.472;2023-03-23T01:31:23;37.66;32.85;45.18;;
79200;Laerm;68628;48.714;9.472;2023-03-23T01:33:49;44.61;35.70;53.03;;
79200;Laerm;68628;48.714;9.472;2023-03-23T01:36:22;40.99;32.77;51.49;;
79200;Laerm;68628;48.714;9.472;2023-03-23T01:38:50;37.68;35.09;45.50;;
79200;Laerm;68628;48.714;9.472;2023-03-23T01:41:18;38.66;34.96;48.37;;
79200;Laerm;68628;48.714;9.472;2023-03-23T01:46:43;39.99;34.98;45.97;;
79200;Laerm;68628;48.714;9.472;2023-03-23T01:49:21;38.13;34.33;47.23;;
79200;Laerm;68628;48.714;9.472;2023-03-23T01:51:59;38.35;33.43;47.40;;
79200;Laerm;68628;48.714;9.472;2023-03-23T01:54:28;35.19;32.19;43.17;;
79200;Laerm;68628;48.714;9.472;2023-03-23T01:57:05;37.70;33.76;42.53;;
79200;Laerm;68628;48.714;9.472;2023-03-23T01:59:34;38.55;34.68;43.01;;
79200;Laerm;68628;48.714;9.472;2023-03-23T02:02:01;39.38;34.89;46.61;;
79200;Laerm;68628;48.714;9.472;2023-03-23T02:04:31;40.97;36.34;46.78;;
79200;Laerm;68628;48.714;9.472;2023-03-23T02:06:59;45.88;35.16;57.88;;
79200;Laerm;68628;48.714;9.472;2023-03-23T02:09:27;43.11;34.90;57.36;;
79200;Laerm;68628;48.714;9.472;2023-03-23T02:11:55;39.23;34.27;47.60;;
79200;Laerm;68628;48.714;9.472;2023-03-23T02:14:24;37.36;33.77;44.17;;
79200;Laerm;68628;48.714;9.472;2023-03-23T02:17:04;38.14;34.07;46.38;;
79200;Laerm;68628;48.714;9.472;2023-03-23T02:23:21;42.15;34.64;57.29;;
79200;Laerm;68628;48.714;9.472;2023-03-23T02:26:13;39.34;34.94;44.74;;
79200;Laerm;68628;48.714;9.472;2023-03-23T02:31:47;36.16;33.26;43.56;;
79200;Laerm;68628;48.714;9.472;2023-03-23T02:34:31;36.25;33.05;40.50;;
79200;Laerm;68628;48.714;9.472;2023-03-23T02:37:14;40.24;35.21;47.22;;
79200;Laerm;68628;48.714;9.472;2023-03-23T02:40:03;37.20;34.04;42.38;;
79200;Laerm;68628;48.714;9.472;2023-03-23T02:42:39;38.11;35.16;42.26;;
79200;Laerm;68628;48.714;9.472;2023-03-23T02:45:12;36.69;34.07;41.19;;
79200;Laerm;68628;48.714;9.472;2023-03-23T02:47:42;45.76;34.40;58.79;;
79200;Laerm;68628;48.714;9.472;2023-03-23T02:50:14;36.76;33.67;42.37;;
79200;Laerm;68628;48.714;9.472;2023-03-23T02:52:45;37.03;33.95;42.05;;
79200;Laerm;68628;48.714;9.472;2023-03-23T02:55:14;40.80;34.57;53.50;;
79200;Laerm;68628;48.714;9.472;2023-03-23T02:57:41;38.19;34.71;44.32;;
79200;Laerm;68628;48.714;9.472;2023-03-23T03:00:15;37.48;33.77;46.94;;
79200;Laerm;68628;48.714;9.472;2023-03-23T03:02:56;39.21;35.06;46.16;;
79200;Laerm;68628;48.714;9.472;2023-03-23T03:11:06;39.67;35.39;46.24;;
79200;Laerm;68628;48.714;9.472;2023-03-23T03:13:49;38.28;34.60;45.86;;
79200;Laerm;68628;48.714;9.472;2023-03-23T03:16:46;39.90;36.45;46.47;;
79200;Laerm;68628;48.714;9.472;2023-03-23T03:19:22;46.26;37.29;57.49;;
79200;Laerm;68628;48.714;9.472;2023-03-23T03:21:54;40.79;37.94;44.57;;
79200;Laerm;68628;48.714;9.472;2023-03-23T03:24:27;44.88;37.04;52.71;;
79200;Laerm;68628;48.714;9.472;2023-03-23T03:26:57;41.41;38.28;52.67;;
79200;Laerm;68628;48.714;9.472;2023-03-23T03:29:34;43.00;38.90;58.84;;
79200;Laerm;68628;48.714;9.472;2023-03-23T03:32:06;42.52;37.62;51.68;;
79200;Laerm;68628;48.714;9.472;2023-03-23T03:34:34;45.74;40.13;56.60;;
79200;Laerm;68628;48.714;9.472;2023-03-23T03:37:00;44.23;40.37;56.97;;
79200;Laerm;68628;48.714;9.472;2023-03-23T03:39:27;43.91;39.59;56.47;;
79200;Laerm;68628;48.714;9.472;2023-03-23T03:41:54;47.22;40.56;60.03;;
79200;Laerm;68628;48.714;9.472;2023-03-23T03:44:20;49.42;42.06;60.78;;
79200;Laerm;68628;48.714;9.472;2023-03-23T03:46:46;49.79;41.38;61.77;;
79200;Laerm;68628;48.714;9.472;2023-03-23T03:49:12;51.92;41.10;64.88;;
79200;Laerm;68628;48.714;9.472;2023-03-23T03:51:39;51.94;40.18;65.55;;
79200;Laerm;68628;48.714;9.472;2023-03-23T03:54:06;50.07;40.28;63.86;;
79200;Laerm;68628;48.714;9.472;2023-03-23T03:56:31;49.41;39.02;63.28;;
79200;Laerm;68628;48.714;9.472;2023-03-23T03:59:02;53.25;41.76;66.38;;
79200;Laerm;68628;48.714;9.472;2023-03-23T04:01:27;53.19;42.04;67.23;;
79200;Laerm;68628;48.714;9.472;2023-03-23T04:03:54;54.44;39.70;68.46;;
79200;Laerm;68628;48.714;9.472;2023-03-23T04:06:20;53.82;39.69;68.55;;
79200;Laerm;68628;48.714;9.472;2023-03-23T04:08:46;53.49;41.53;69.36;;
79200;Laerm;68628;48.714;9.472;2023-03-23T04:11:14;52.52;41.65;67.11;;
79200;Laerm;68628;48.714;9.472;2023-03-23T04:13:41;53.78;41.61;70.09;;
79200;Laerm;68628;48.714;9.472;2023-03-23T04:16:08;56.28;42.60;69.19;;
79200;Laerm;68628;48.714;9.472;2023-03-23T04:18:35;55.69;42.29;69.73;;
79200;Laerm;68628;48.714;9.472;2023-03-23T04:21:02;55.55;42.36;70.09;;
79200;Laerm;68628;48.714;9.472;2023-03-23T04:23:30;56.30;43.18;70.23;;
79200;Laerm;68628;48.714;9.472;2023-03-23T04:25:59;55.96;43.11;68.74;;
79200;Laerm;68628;48.714;9.472;2023-03-23T04:28:26;53.98;43.18;66.99;;
79200;Laerm;68628;48.714;9.472;2023-03-23T04:30:54;55.64;42.67;69.06;;
79200;Laerm;68628;48.714;9.472;2023-03-23T04:33:24;53.83;42.64;69.69;;
79200;Laerm;68628;48.714;9.472;2023-03-23T04:35:54;48.58;43.10;61.71;;
79200;Laerm;68628;48.714;9.472;2023-03-23T04:38:23;47.97;43.99;54.95;;
79200;Laerm;68628;48.714;9.472;2023-03-23T04:40:52;50.63;44.25;60.90;;
79200;Laerm;68628;48.714;9.472;2023-03-23T04:43:20;55.25;44.38;71.50;;
79200;Laerm;68628;48.714;9.472;2023-03-23T04:45:55;50.30;43.98;60.57;;
79200;Laerm;68628;48.714;9.472;2023-03-23T04:48:23;50.48;44.93;60.23;;
79200;Laerm;68628;48.714;9.472;2023-03-23T04:50:49;51.65;43.87;60.92;;
79200;Laerm;68628;48.714;9.472;2023-03-23T04:53:17;51.49;44.28;62.31;;
79200;Laerm;68628;48.714;9.472;2023-03-23T04:55:44;52.66;45.50;61.88;;
79200;Laerm;68628;48.714;9.472;2023-03-23T04:58:11;50.72;43.82;66.92;;
79200;Laerm;68628;48.714;9.472;2023-03-23T05:00:38;49.63;44.43;58.62;;
79200;Laerm;68628;48.714;9.472;2023-03-23T05:03:04;48.78;44.41;59.74;;
79200;Laerm;68628;48.714;9.472;2023-03-23T05:05:30;50.82;44.86;61.52;;
79200;Laerm;68628;48.714;9.472;2023-03-23T05:07:57;48.33;45.20;56.69;;
79200;Laerm;68628;48.714;9.472;2023-03-23T05:10:23;50.68;45.43;62.54;;
79200;Laerm;68628;48.714;9.472;2023-03-23T05:12:49;50.19;45.75;58.97;;
79200;Laerm;68628;48.714;9.472;2023-03-23T05:15:16;50.57;46.42;60.24;;
79200;Laerm;68628;48.714;9.472;2023-03-23T05:17:43;49.90;45.18;58.95;;
79200;Laerm;68628;48.714;9.472;2023-03-23T05:20:15;48.09;45.23;53.43;;
79200;Laerm;68628;48.714;9.472;2023-03-23T05:22:45;49.48;46.18;56.21;;
79200;Laerm;68628;48.714;9.472;2023-03-23T05:25:13;51.44;47.64;61.87;;
79200;Laerm;68628;48.714;9.472;2023-03-23T05:27:39;49.65;46.50;57.11;;
79200;Laerm;68628;48.714;9.472;2023-03-23T05:30:09;51.16;46.98;58.38;;
79200;Laerm;68628;48.714;9.472;2023-03-23T05:32:35;50.35;46.66;57.57;;
79200;Laerm;68628;48.714;9.472;2023-03-23T05:35:03;50.40;46.65;60.07;;
79200;Laerm;68628;48.714;9.472;2023-03-23T05:37:29;52.38;46.92;64.70;;
79200;Laerm;68628;48.714;9.472;2023-03-23T05:39:59;51.61;47.62;61.63;;
79200;Laerm;68628;48.714;9.472;2023-03-23T05:42:27;49.83;46.28;61.53;;
79200;Laerm;68628;48.714;9.472;2023-03-23T05:44:52;50.87;46.74;61.10;;
79200;Laerm;68628;48.714;9.472;2023-03-23T05:47:18;49.71;46.13;59.63;;
79200;Laerm;68628;48.714;9.472;2023-03-23T05:49:44;50.17;47.09;57.23;;
79200;Laerm;68628;48.714;9.472;2023-03-23T05:52:10;53.43;47.61;64.68;;
79200;Laerm;68628;48.714;9.472;2023-03-23T05:54:36;48.74;45.61;57.16;;
79200;Laerm;68628;48.714;9.472;2023-03-23T05:57:03;50.59;46.86;60.25;;
79200;Laerm;68628;48.714;9.472;2023-03-23T05:59:28;50.73;47.23;58.43;;
79200;Laerm;68628;48.714;9.472;2023-03-23T06:01:54;53.13;46.57;58.33;;
79200;Laerm;68628;48.714;9.472;2023-03-23T06:04:21;51.24;46.57;58.15;;
79200;Laerm;68628;48.714;9.472;2023-03-23T06:06:51;49.86;45.97;55.51;;
79200;Laerm;68628;48.714;9.472;2023-03-23T06:09:18;51.65;47.94;60.47;;
79200;Laerm;68628;48.714;9.472;2023-03-23T06:11:44;51.47;47.61;63.72;;
79200;Laerm;68628;48.714;9.472;2023-03-23T06:14:10;49.36;45.90;55.65;;
79200;Laerm;68628;48.714;9.472;2023-03-23T06:16:35;51.46;47.42;57.61;;
79200;Laerm;68628;48.714;9.472;2023-03-23T06:19:01;51.22;47.70;56.77;;
79200;Laerm;68628;48.714;9.472;2023-03-23T06:21:31;51.89;47.82;58.90;;
79200;Laerm;68628;48.714;9.472;2023-03-23T06:23:57;55.00;48.43;68.05;;
79200;Laerm;68628;48.714;9.472;2023-03-23T06:26:35;50.78;47.81;55.66;;
79200;Laerm;68628;48.714;9.472;2023-03-23T06:29:02;51.81;47.63;57.97;;
79200;Laerm;68628;48.714;9.472;2023-03-23T06:31:40;50.71;47.78;59.81;;
79200;Laerm;68628;48.714;9.472;2023-03-23T06:34:07;51.76;47.09;61.67;;
79200;Laerm;68628;48.714;9.472;2023-03-23T06:36:35;50.08;46.89;57.90;;
79200;Laerm;68628;48.714;9.472;2023-03-23T06:39:02;52.93;47.93;61.72;;
79200;Laerm;68628;48.714;9.472;2023-03-23T06:41:31;50.64;47.21;59.95;;
79200;Laerm;68628;48.714;9.472;2023-03-23T06:43:58;50.84;46.89;56.54;;
79200;Laerm;68628;48.714;9.472;2023-03-23T06:46:24;51.99;47.72;61.62;;
79200;Laerm;68628;48.714;9.472;2023-03-23T06:48:49;52.98;47.50;65.15;;
79200;Laerm;68628;48.714;9.472;2023-03-23T06:51:17;52.28;47.43;59.49;;
79200;Laerm;68628;48.714;9.472;2023-03-23T06:53:43;55.84;46.52;69.36;;
79200;Laerm;68628;48.714;9.472;2023-03-23T06:56:09;52.43;46.27;69.67;;
79200;Laerm;68628;48.714;9.472;2023-03-23T06:58:34;51.02;46.83;57.46;;
79200;Laerm;68628;48.714;9.472;2023-03-23T07:01:00;51.13;47.11;58.60;;
79200;Laerm;68628;48.714;9.472;2023-03-23T07:03:26;49.87;46.06;57.19;;
79200;Laerm;68628;48.714;9.472;2023-03-23T07:05:54;50.11;47.19;57.88;;
79200;Laerm;68628;48.714;9.472;2023-03-23T07:08:20;50.07;46.24;58.55;;
79200;Laerm;68628;48.714;9.472;2023-03-23T07:10:47;51.78;47.21;61.94;;
79200;Laerm;68628;48.714;9.472;2023-03-23T07:13:13;51.27;47.31;57.33;;
79200;Laerm;68628;48.714;9.472;2023-03-23T07:15:39;50.37;46.05;57.37;;
79200;Laerm;68628;48.714;9.472;2023-03-23T07:18:05;50.49;45.84;59.35;;
79200;Laerm;68628;48.714;9.472;2023-03-23T07:20:31;50.46;45.82;57.04;;
79200;Laerm;68628;48.714;9.472;2023-03-23T07:22:56;51.19;46.89;60.85;;
79200;Laerm;68628;48.714;9.472;2023-03-23T07:25:22;51.53;46.24;60.95;;
79200;Laerm;68628;48.714;9.472;2023-03-23T07:27:48;50.91;46.11;58.89;;
79200;Laerm;68628;48.714;9.472;2023-03-23T07:30:14;50.14;46.55;57.77;;
79200;Laerm;68628;48.714;9.472;2023-03-23T07:32:41;52.42;47.15;65.05;;
79200;Laerm;68628;48.714;9.472;2023-03-23T07:35:08;50.34;45.21;57.64;;
79200;Laerm;68628;48.714;9.472;2023-03-23T07:37:35;50.52;46.01;60.19;;
79200;Laerm;68628;48.714;9.472;2023-03-23T07:40:03;49.94;44.82;57.51;;
79200;Laerm;68628;48.714;9.472;2023-03-23T07:42:57;49.16;44.08;57.99;;
79200;Laerm;68628;48.714;9.472;2023-03-23T07:45:23;48.80;45.25;57.19;;
79200;Laerm;68628;48.714;9.472;2023-03-23T07:47:49;50.56;45.82;57.84;;
79200;Laerm;68628;48.714;9.472;2023-03-23T07:50:15;49.67;46.31;59.59;;
79200;Laerm;68628;48.714;9.472;2023-03-23T07:52:41;51.25;45.25;58.12;;
79200;Laerm;68628;48.714;9.472;2023-03-23T07:55:10;48.88;45.11;57.12;;
79200;Laerm;68628;48.714;9.472;2023-03-23T07:57:47;49.42;45.21;56.44;;
79200;Laerm;68628;48.714;9.472;2023-03-23T08:00:16;49.84;44.93;57.81;;
79200;Laerm;68628;48.714;9.472;2023-03-23T08:02:47;50.17;44.92;59.65;;
79200;Laerm;68628;48.714;9.472;2023-03-23T08:05:15;51.77;44.86;70.04;;
79200;Laerm;68628;48.714;9.472;2023-03-23T08:07:42;50.81;45.40;58.33;;
79200;Laerm;68628;48.714;9.472;2023-03-23T08:10:10;51.48;45.77;60.52;;
79200;Laerm;68628;48.714;9.472;2023-03-23T08:12:37;50.31;45.41;61.77;;
79200;Laerm;68628;48.714;9.472;2023-03-23T08:15:06;52.73;46.55;63.04;;
79200;Laerm;68628;48.714;9.472;2023-03-23T08:17:34;49.51;45.91;58.73;;
79200;Laerm;68628;48.714;9.472;2023-03-23T08:20:00;51.37;46.74;58.61;;
79200;Laerm;68628;48.714;9.472;2023-03-23T08:22:28;50.27;47.00;58.36;;
79200;Laerm;68628;48.714;9.472;2023-03-23T08:24:54;52.01;45.43;63.30;;
79200;Laerm;68628;48.714;9.472;2023-03-23T08:27:20;49.59;45.50;61.82;;
79200;Laerm;68628;48.714;9.472;2023-03-23T08:29:46;49.28;46.23;54.40;;
79200;Laerm;68628;48.714;9.472;2023-03-23T08:32:13;54.15;46.21;67.87;;
79200;Laerm;68628;48.714;9.472;2023-03-23T08:34:40;49.79;46.09;60.57;;
79200;Laerm;68628;48.714;9.472;2023-03-23T08:37:08;50.83;47.32;57.80;;
79200;Laerm;68628;48.714;9.472;2023-03-23T08:39:34;51.10;46.66;65.39;;
79200;Laerm;68628;48.714;9.472;2023-03-23T08:42:00;51.11;45.07;58.19;;
79200;Laerm;68628;48.714;9.472;2023-03-23T08:44:25;49.80;45.78;56.92;;
79200;Laerm;68628;48.714;9.472;2023-03-23T08:46:51;48.78;45.19;53.79;;
79200;Laerm;68628;48.714;9.472;2023-03-23T08:49:23;49.74;46.43;55.42;;
79200;Laerm;68628;48.714;9.472;2023-03-23T08:51:49;48.60;45.62;58.22;;
79200;Laerm;68628;48.714;9.472;2023-03-23T08:54:14;49.54;45.91;55.99;;
79200;Laerm;68628;48.714;9.472;2023-03-23T08:56:40;48.57;44.38;55.45;;
79200;Laerm;68628;48.714;9.472;2023-03-23T08:59:06;50.08;43.66;60.92;;
79200;Laerm;68628;48.714;9.472;2023-03-23T09:01:32;49.64;43.59;57.01;;
79200;Laerm;68628;48.714;9.472;2023-03-23T09:03:58;49.87;44.58;56.30;;
79200;Laerm;68628;48.714;9.472;2023-03-23T09:06:25;49.61;44.65;70.55;;
79200;Laerm;68628;48.714;9.472;2023-03-23T09:08:53;50.15;44.73;65.81;;
79200;Laerm;68628;48.714;9.472;2023-03-23T09:11:20;57.04;46.80;75.56;;
79200;Laerm;68628;48.714;9.472;2023-03-23T09:13:46;61.44;45.39;81.21;;
79200;Laerm;68628;48.714;9.472;2023-03-23T09:16:12;53.39;45.26;71.06;;
79200;Laerm;68628;48.714;9.472;2023-03-23T09:18:38;50.47;44.12;66.20;;
79200;Laerm;68628;48.714;9.472;2023-03-23T09:21:05;51.07;44.64;69.20;;
79200;Laerm;68628;48.714;9.472;2023-03-23T09:23:31;56.46;44.25;75.27;;
79200;Laerm;68628;48.714;9.472;2023-03-23T09:25:59;55.82;44.69;77.71;;
79200;Laerm;68628;48.714;9.472;2023-03-23T09:28:25;55.87;44.28;78.35;;
79200;Laerm;68628;48.714;9.472;2023-03-23T09:30:55;55.29;44.72;74.07;;
79200;Laerm;68628;48.714;9.472;2023-03-23T09:33:24;52.49;41.59;72.88;;
79200;Laerm;68628;48.714;9.472;2023-03-23T09:35:50;49.08;42.26;65.35;;
79200;Laerm;68628;48.714;9.472;2023-03-23T09:38:16;50.61;43.49;63.20;;
79200;Laerm;68628;48.714;9.472;2023-03-23T09:44:02;48.88;43.01;62.85;;
79200;Laerm;68628;48.714;9.472;2023-03-23T09:52:11;48.56;42.91;63.92;;
79200;Laerm;68628;48.714;9.472;2023-03-23T09:54:47;54.07;42.71;73.06;;
79200;Laerm;68628;48.714;9.472;2023-03-23T09:57:34;51.04;43.24;68.92;;
79200;Laerm;68628;48.714;9.472;2023-03-23T10:00:34;51.49;45.12;69.40;;
79200;Laerm;68628;48.714;9.472;2023-03-23T10:03:23;57.37;44.80;75.40;;
79200;Laerm;68628;48.714;9.472;2023-03-23T10:05:53;63.28;43.55;83.08;;
79200;Laerm;68628;48.714;9.472;2023-03-23T10:08:25;64.77;44.22;86.11;;
79200;Laerm;68628;48.714;9.472;2023-03-23T10:14:36;48.53;43.85;57.68;;
79200;Laerm;68628;48.714;9.472;2023-03-23T10:17:26;58.29;45.81;74.44;;
79200;Laerm;68628;48.714;9.472;2023-03-23T10:20:23;51.65;44.54;62.86;;
79200;Laerm;68628;48.714;9.472;2023-03-23T10:25:54;52.59;48.01;68.22;;
79200;Laerm;68628;48.714;9.472;2023-03-23T10:28:48;52.50;44.57;78.81;;
79200;Laerm;68628;48.714;9.472;2023-03-23T10:31:41;49.75;43.14;60.70;;
79200;Laerm;68628;48.714;9.472;2023-03-23T10:34:31;47.97;43.99;56.51;;
79200;Laerm;68628;48.714;9.472;2023-03-23T10:37:17;49.51;41.96;69.67;;
79200;Laerm;68628;48.714;9.472;2023-03-23T10:39:53;52.03;43.60;70.43;;
79200;Laerm;68628;48.714;9.472;2023-03-23T10:42:31;50.95;43.63;66.94;;
79200;Laerm;68628;48.714;9.472;2023-03-23T10:45:20;49.30;43.11;62.96;;
79200;Laerm;68628;48.714;9.472;2023-03-23T10:48:14;52.58;43.02;68.30;;
79200;Laerm;68628;48.714;9.472;2023-03-23T10:50:44;48.93;42.72;58.62;;
79200;Laerm;68628;48.714;9.472;2023-03-23T10:53:24;56.83;43.28;74.48;;
79200;Laerm;68628;48.714;9.472;2023-03-23T10:55:53;51.55;42.99;66.19;;
79200;Laerm;68628;48.714;9.472;2023-03-23T10:58:31;49.15;42.07;55.57;;
79200;Laerm;68628;48.714;9.472;2023-03-23T11:01:04;50.08;42.82;59.83;;
79200;Laerm;68628;48.714;9.472;2023-03-23T11:06:27;48.81;42.76;57.22;;
79200;Laerm;68628;48.714;9.472;2023-03-23T11:09:01;48.13;42.55;56.32;;
79200;Laerm;68628;48.714;9.472;2023-03-23T11:11:36;51.83;43.97;62.95;;
79200;Laerm;68628;48.714;9.472;2023-03-23T11:16:51;48.30;43.86;58.13;;
79200;Laerm;68628;48.714;9.472;2023-03-23T11:19:26;46.07;41.36;55.01;;
79200;Laerm;68628;48.714;9.472;2023-03-23T11:21:57;46.80;42.44;54.62;;
79200;Laerm;68628;48.714;9.472;2023-03-23T11:24:29;51.99;43.82;64.10;;
79200;Laerm;68628;48.714;9.472;2023-03-23T11:26:57;49.08;44.13;58.87;;
79200;Laerm;68628;48.714;9.472;2023-03-23T11:29:31;49.89;43.31;63.61;;
79200;Laerm;68628;48.714;9.472;2023-03-23T11:37:09;53.66;43.19;74.71;;
79200;Laerm;68628;48.714;9.472;2023-03-23T11:39:55;66.87;43.73;88.97;;
79200;Laerm;68628;48.714;9.472;2023-03-23T11:42:38;54.50;44.24;72.70;;
79200;Laerm;68628;48.714;9.472;2023-03-23T11:45:24;57.69;43.85;75.23;;
79200;Laerm;68628;48.714;9.472;2023-03-23T11:54:28;59.52;44.16;76.06;;
79200;Laerm;68628;48.714;9.472;2023-03-23T11:56:55;53.05;43.06;67.97;;
79200;Laerm;68628;48.714;9.472;2023-03-23T11:59:35;51.74;44.79;62.91;;
79200;Laerm;68628;48.714;9.472;2023-03-23T12:05:24;55.35;44.68;71.60;;
79200;Laerm;68628;48.714;9.472;2023-03-23T12:23:00;52.58;43.22;73.37;;
79200;Laerm;68628;48.714;9.472;2023-03-23T12:28:48;62.54;43.59;84.64;;
79200;Laerm;68628;48.714;9.472;2023-03-23T12:32:08;51.40;43.60;69.36;;
79200;Laerm;68628;48.714;9.472;2023-03-23T12:34:57;53.31;42.67;67.34;;
79200;Laerm;68628;48.714;9.472;2023-03-23T12:37:57;49.92;43.96;60.90;;
79200;Laerm;68628;48.714;9.472;2023-03-23T12:40:52;55.46;44.61;78.60;;
79200;Laerm;68628;48.714;9.472;2023-03-23T12:44:02;55.95;44.45;79.10;;
79200;Laerm;68628;48.714;9.472;2023-03-23T13:03:07;49.69;43.32;58.55;;
79200;Laerm;68628;48.714;9.472;2023-03-23T13:06:18;50.96;43.03;65.66;;
79200;Laerm;68628;48.714;9.472;2023-03-23T13:08:56;54.43;43.81;72.35;;
79200;Laerm;68628;48.714;9.472;2023-03-23T13:11:36;53.45;43.23;76.16;;
79200;Laerm;68628;48.714;9.472;2023-03-23T13:20:34;52.24;42.65;71.79;;
79200;Laerm;68628;48.714;9.472;2023-03-23T13:23:21;47.21;41.91;58.08;;
79200;Laerm;68628;48.714;9.472;2023-03-23T13:26:11;50.58;44.33;64.49;;
79200;Laerm;68628;48.714;9.472;2023-03-23T13:28:58;48.73;42.83;62.72;;
79200;Laerm;68628;48.714;9.472;2023-03-23T13:31:35;48.93;43.42;58.61;;
79200;Laerm;68628;48.714;9.472;2023-03-23T13:34:25;55.17;43.26;72.09;;
79200;Laerm;68628;48.714;9.472;2023-03-23T13:37:02;51.09;43.47;59.58;;
79200;Laerm;68628;48.714;9.472;2023-03-23T13:39:48;49.42;44.28;60.02;;
79200;Laerm;68628;48.714;9.472;2023-03-23T13:57:55;48.55;42.66;58.62;;
79200;Laerm;68628;48.714;9.472;2023-03-23T14:03:33;55.07;44.64;69.56;;
79200;Laerm;68628;48.714;9.472;2023-03-23T14:06:13;55.33;43.45;71.66;;
79200;Laerm;68628;48.714;9.472;2023-03-23T14:08:44;53.51;44.41;70.77;;
79200;Laerm;68628;48.714;9.472;2023-03-23T14:11:17;55.31;45.18;77.03;;
79200;Laerm;68628;48.714;9.472;2023-03-23T14:14:12;51.59;45.31;62.05;;
79200;Laerm;68628;48.714;9.472;2023-03-23T14:16:44;53.07;44.00;69.66;;
79200;Laerm;68628;48.714;9.472;2023-03-23T14:19:27;59.77;43.67;82.85;;
79200;Laerm;68628;48.714;9.472;2023-03-23T14:21:58;50.24;43.32;62.95;;
79200;Laerm;68628;48.714;9.472;2023-03-23T14:24:39;52.41;45.08;61.14;;
79200;Laerm;68628;48.714;9.472;2023-03-23T14:29:33;49.93;44.86;61.30;;
79200;Laerm;68628;48.714;9.472;2023-03-23T14:31:59;51.42;42.80;72.38;;
79200;Laerm;68628;48.714;9.472;2023-03-23T14:34:31;50.99;44.55;68.99;;
79200;Laerm;68628;48.714;9.472;2023-03-23T14:36:59;61.90;43.14;83.43;;
79200;Laerm;68628;48.714;9.472;2023-03-23T14:39:32;50.82;44.53;61.19;;
79200;Laerm;68628;48.714;9.472;2023-03-23T14:42:15;51.55;46.51;64.54;;
79200;Laerm;68628;48.714;9.472;2023-03-23T14:44:51;63.17;46.24;80.81;;
79200;Laerm;68628;48.714;9.472;2023-03-23T14:47:24;59.30;45.67;79.04;;
79200;Laerm;68628;48.714;9.472;2023-03-23T14:50:00;51.76;45.67;68.53;;
79200;Laerm;68628;48.714;9.472;2023-03-23T14:52:35;55.55;46.30;73.60;;
79200;Laerm;68628;48.714;9.472;2023-03-23T14:55:27;56.55;45.94;74.82;;
79200;Laerm;68628;48.714;9.472;2023-03-23T14:58:09;53.60;45.10;70.17;;
79200;Laerm;68628;48.714;9.472;2023-03-23T15:00:52;51.06;45.12;64.49;;
79200;Laerm;68628;48.714;9.472;2023-03-23T15:03:22;56.95;45.70;76.47;;
79200;Laerm;68628;48.714;9.472;2023-03-23T15:05:54;65.11;46.21;86.19;;
79200;Laerm;68628;48.714;9.472;2023-03-23T15:08:32;53.13;45.50;70.96;;
79200;Laerm;68628;48.714;9.472;2023-03-23T15:11:23;51.08;45.17;68.91;;
79200;Laerm;68628;48.714;9.472;2023-03-23T15:13:57;55.33;44.82;72.46;;
79200;Laerm;68628;48.714;9.472;2023-03-23T15:16:31;49.29;43.57;60.24;;
79200;Laerm;68628;48.714;9.472;2023-03-23T15:19:25;52.19;45.28;70.69;;
79200;Laerm;68628;48.714;9.472;2023-03-23T15:22:44;51.21;45.36;64.55;;
79200;Laerm;68628;48.714;9.472;2023-03-23T15:24:44;51.94;45.11;70.79;;
79200;Laerm;68628;48.714;9.472;2023-03-23T15:27:14;54.74;44.86;73.20;;
79200;Laerm;68628;48.714;9.472;2023-03-23T15:29:58;50.49;44.25;68.74;;
79200;Laerm;68628;48.714;9.472;2023-03-23T15:32:27;53.50;43.91;71.58;;
79200;Laerm;68628;48.714;9.472;2023-03-23T15:34:55;52.51;44.07;69.26;;
79200;Laerm;68628;48.714;9.472;2023-03-23T15:37:29;48.96;44.74;58.73;;
79200;Laerm;68628;48.714;9.472;2023-03-23T15:39:59;56.02;44.52;75.45;;
79200;Laerm;68628;48.714;9.472;2023-03-23T15:42:34;49.32;44.55;64.17;;
79200;Laerm;68628;48.714;9.472;2023-03-23T15:50:17;56.80;43.90;79.90;;
79200;Laerm;68628;48.714;9.472;2023-03-23T15:52:45;51.30;44.06;62.18;;
79200;Laerm;68628;48.714;9.472;2023-03-23T15:55:36;58.83;44.33;77.99;;
79200;Laerm;68628;48.714;9.472;2023-03-23T15:58:11;56.58;44.14;73.68;;
79200;Laerm;68628;48.714;9.472;2023-03-23T16:00:40;59.02;45.10;77.63;;
79200;Laerm;68628;48.714;9.472;2023-03-23T16:03:23;50.32;44.58;61.43;;
79200;Laerm;68628;48.714;9.472;2023-03-23T16:05:53;51.04;44.53;66.01;;
79200;Laerm;68628;48.714;9.472;2023-03-23T16:08:19;52.71;44.80;71.27;;
79200;Laerm;68628;48.714;9.472;2023-03-23T16:10:45;52.05;44.23;69.75;;